Sioux — NJOV — position and weather

sailwx.info

Track history (hours):
 
Tides and Currents Weather Stations Pressure Air Temp Water Temp Dewpoint Dewpoint Depression Visibility Wind Speed Wind Dir Waves Ship Positions

Sioux

Last reported at 2017-Sep-19 05:08 UTC. Time now 2017-Sep-22 20:38 UTC.
Position N 32°35' W 118°57'.

Length 69 m; draft 4.4 m.

Type: Diving. MMSI: 367884000.

Date/timePositionNaut miles runAvg speedWind from/ knotsBaromVisibWave heightAir tempDewpointWater temp
2017-Sep-19 05:08N 32°35' W 118°57'1013.7
2017-Sep-19 04:24N 32°35' W 118°45'614.1
2017-Sep-19 03:58N 32°35' W 118°38'913.7
2017-Sep-19 03:18N 32°35' W 118°27'513.8
2017-Sep-19 02:56N 32°36' W 118°21'1713.8
2017-Sep-19 01:42N 32°36' W 118°01'313.7
2017-Sep-19 01:30N 32°36' W 117°58'713.8
2017-Sep-19 01:00N 32°37' W 117°50'714.0
2017-Sep-19 00:31N 32°37' W 117°41'713.6
2017-Sep-19 00:00N 32°38' W 117°33'613.1
2017-Sep-18 23:31N 32°37' W 117°26'713.4
2017-Sep-18 23:01N 32°37' W 117°18'5 9.5
2017-Sep-18 22:30N 32°41' W 117°14'1 2.3
2017-Sep-18 22:00N 32°42' W 117°14'0 0.0
2017-Sep-18 21:30N 32°42' W 117°14'0 0.0
2017-Sep-18 21:00N 32°42' W 117°14'0 0.0
2017-Sep-18 20:30N 32°42' W 117°14'0 0.0
2017-Sep-18 20:00N 32°42' W 117°14'0 0.0
2017-Sep-18 19:21N 32°42' W 117°14'0 0.0
2017-Sep-18 18:51N 32°42' W 117°14'0 0.0
2017-Sep-18 18:13N 32°42' W 117°14'0 0.0
2017-Sep-18 18:00N 32°42' W 117°14'2 4.5
2017-Sep-18 17:30N 32°43' W 117°12'  
2017-Sep-13 23:32N 32°41' W 117°07'0 0.1
2017-Sep-13 23:29N 32°41' W 117°07'0 0.9
2017-Sep-13 23:00N 32°41' W 117°08'4 8.4
2017-Sep-13 22:30N 32°43' W 117°12'4 8.1
2017-Sep-13 22:00N 32°39' W 117°14'611.4
2017-Sep-13 21:30N 32°36' W 117°19'714.1
2017-Sep-13 21:01N 32°37' W 117°28'714.1
2017-Sep-13 20:31N 32°37' W 117°36'713.9
2017-Sep-13 20:00N 32°38' W 117°44'713.6
2017-Sep-13 19:30N 32°39' W 117°52'2 3.6
2017-Sep-13 19:00N 32°40' W 117°50'611.3
2017-Sep-13 18:31N 32°38' W 117°44'4 8.7
2017-Sep-13 18:00N 32°38' W 117°38'714.3
2017-Sep-13 17:30N 32°37' W 117°30'714.0
2017-Sep-13 17:00N 32°38' W 117°22'612.1
2017-Sep-13 16:31N 32°37' W 117°15'5 9.3
2017-Sep-13 16:00N 32°42' W 117°14'3 5.9
2017-Sep-13 15:30N 32°42' W 117°10'  
Track history (hours):
 
Tides and Currents Weather Stations Pressure Air Temp Water Temp Dewpoint Dewpoint Depression Visibility Wind Speed Wind Dir Waves Ship Positions

Sioux

Last reported at 2017-Sep-19 05:08 UTC. Time now 2017-Sep-22 20:38 UTC.
Position N 32°35' W 118°57'.

Length 69 m; draft 4.4 m.

Type: Diving. MMSI: 367884000.

Date/timePositionNaut miles runAvg speedWind from/ knotsBaromVisibWave heightAir tempDewpointWater temp
2017-Sep-19 05:08N 32°35' W 118°57'1013.7
2017-Sep-19 04:24N 32°35' W 118°45'614.1
2017-Sep-19 03:58N 32°35' W 118°38'913.7
2017-Sep-19 03:18N 32°35' W 118°27'513.8
2017-Sep-19 02:56N 32°36' W 118°21'1713.8
2017-Sep-19 01:42N 32°36' W 118°01'313.7
2017-Sep-19 01:30N 32°36' W 117°58'713.8
2017-Sep-19 01:00N 32°37' W 117°50'714.0
2017-Sep-19 00:31N 32°37' W 117°41'713.6
2017-Sep-19 00:00N 32°38' W 117°33'613.1
2017-Sep-18 23:31N 32°37' W 117°26'713.4
2017-Sep-18 23:01N 32°37' W 117°18'5 9.5
2017-Sep-18 22:30N 32°41' W 117°14'1 2.3
2017-Sep-18 22:00N 32°42' W 117°14'0 0.0
2017-Sep-18 21:30N 32°42' W 117°14'0 0.0
2017-Sep-18 21:00N 32°42' W 117°14'0 0.0
2017-Sep-18 20:30N 32°42' W 117°14'0 0.0
2017-Sep-18 20:00N 32°42' W 117°14'0 0.0
2017-Sep-18 19:21N 32°42' W 117°14'0 0.0
2017-Sep-18 18:51N 32°42' W 117°14'0 0.0
2017-Sep-18 18:13N 32°42' W 117°14'0 0.0
2017-Sep-18 18:00N 32°42' W 117°14'2 4.5
2017-Sep-18 17:30N 32°43' W 117°12'  
2017-Sep-13 23:32N 32°41' W 117°07'0 0.1
2017-Sep-13 23:29N 32°41' W 117°07'0 0.9
2017-Sep-13 23:00N 32°41' W 117°08'4 8.4
2017-Sep-13 22:30N 32°43' W 117°12'4 8.1
2017-Sep-13 22:00N 32°39' W 117°14'611.4
2017-Sep-13 21:30N 32°36' W 117°19'714.1
2017-Sep-13 21:01N 32°37' W 117°28'714.1
2017-Sep-13 20:31N 32°37' W 117°36'713.9
2017-Sep-13 20:00N 32°38' W 117°44'713.6
2017-Sep-13 19:30N 32°39' W 117°52'2 3.6
2017-Sep-13 19:00N 32°40' W 117°50'611.3
2017-Sep-13 18:31N 32°38' W 117°44'4 8.7
2017-Sep-13 18:00N 32°38' W 117°38'714.3
2017-Sep-13 17:30N 32°37' W 117°30'714.0
2017-Sep-13 17:00N 32°38' W 117°22'612.1
2017-Sep-13 16:31N 32°37' W 117°15'5 9.3
2017-Sep-13 16:00N 32°42' W 117°14'3 5.9
2017-Sep-13 15:30N 32°42' W 117°10'  

Dump ship's entire track history